sensor_id;sensor_type;location;lat;lon;timestamp;P1;durP1;ratioP1;P2;durP2;ratioP2
31378;SDS011;61664;48.112;11.662;2023-03-15T00:01:48;0.75;;;0.55;;
31378;SDS011;61664;48.112;11.662;2023-03-15T00:04:15;0.68;;;0.52;;
31378;SDS011;61664;48.112;11.662;2023-03-15T00:06:42;1.48;;;0.57;;
31378;SDS011;61664;48.112;11.662;2023-03-15T00:09:09;0.90;;;0.50;;
31378;SDS011;61664;48.112;11.662;2023-03-15T00:11:36;1.00;;;0.80;;
31378;SDS011;61664;48.112;11.662;2023-03-15T00:14:03;3.10;;;0.80;;
31378;SDS011;61664;48.112;11.662;2023-03-15T00:16:31;1.02;;;0.60;;
31378;SDS011;61664;48.112;11.662;2023-03-15T00:18:58;0.60;;;0.60;;
31378;SDS011;61664;48.112;11.662;2023-03-15T00:21:25;1.08;;;0.70;;
31378;SDS011;61664;48.112;11.662;2023-03-15T00:23:55;2.05;;;0.57;;
31378;SDS011;61664;48.112;11.662;2023-03-15T00:26:22;0.85;;;0.68;;
31378;SDS011;61664;48.112;11.662;2023-03-15T00:28:49;1.02;;;0.80;;
31378;SDS011;61664;48.112;11.662;2023-03-15T00:31:17;0.90;;;0.63;;
31378;SDS011;61664;48.112;11.662;2023-03-15T00:33:47;0.57;;;0.57;;
31378;SDS011;61664;48.112;11.662;2023-03-15T00:36:15;0.85;;;0.60;;
31378;SDS011;61664;48.112;11.662;2023-03-15T00:38:42;0.68;;;0.68;;
31378;SDS011;61664;48.112;11.662;2023-03-15T00:41:13;0.60;;;0.50;;
31378;SDS011;61664;48.112;11.662;2023-03-15T00:43:43;2.47;;;0.60;;
31378;SDS011;61664;48.112;11.662;2023-03-15T00:46:11;0.50;;;0.50;;
31378;SDS011;61664;48.112;11.662;2023-03-15T00:48:39;1.08;;;0.75;;
31378;SDS011;61664;48.112;11.662;2023-03-15T00:51:10;1.38;;;0.60;;
31378;SDS011;61664;48.112;11.662;2023-03-15T00:53:44;0.73;;;0.50;;
31378;SDS011;61664;48.112;11.662;2023-03-15T00:56:14;0.80;;;0.80;;
31378;SDS011;61664;48.112;11.662;2023-03-15T00:58:44;1.33;;;0.70;;
31378;SDS011;61664;48.112;11.662;2023-03-15T01:01:19;3.55;;;0.73;;
31378;SDS011;61664;48.112;11.662;2023-03-15T01:03:49;0.55;;;0.55;;
31378;SDS011;61664;48.112;11.662;2023-03-15T01:06:17;1.45;;;0.40;;
31378;SDS011;61664;48.112;11.662;2023-03-15T01:08:48;2.40;;;0.55;;
31378;SDS011;61664;48.112;11.662;2023-03-15T01:11:17;1.60;;;0.57;;
31378;SDS011;61664;48.112;11.662;2023-03-15T01:13:53;0.30;;;0.30;;
31378;SDS011;61664;48.112;11.662;2023-03-15T01:16:23;2.95;;;0.20;;
31378;SDS011;61664;48.112;11.662;2023-03-15T01:18:50;0.30;;;0.30;;
31378;SDS011;61664;48.112;11.662;2023-03-15T01:21:19;0.28;;;0.28;;
31378;SDS011;61664;48.112;11.662;2023-03-15T01:23:47;0.20;;;0.20;;
31378;SDS011;61664;48.112;11.662;2023-03-15T01:26:15;0.20;;;0.20;;
31378;SDS011;61664;48.112;11.662;2023-03-15T01:28:43;0.30;;;0.30;;
31378;SDS011;61664;48.112;11.662;2023-03-15T01:31:19;0.30;;;0.20;;
31378;SDS011;61664;48.112;11.662;2023-03-15T01:33:51;0.50;;;0.30;;
31378;SDS011;61664;48.112;11.662;2023-03-15T01:36:18;0.32;;;0.32;;
31378;SDS011;61664;48.112;11.662;2023-03-15T01:38:46;0.30;;;0.30;;
31378;SDS011;61664;48.112;11.662;2023-03-15T01:41:14;0.43;;;0.43;;
31378;SDS011;61664;48.112;11.662;2023-03-15T01:43:43;0.57;;;0.57;;
31378;SDS011;61664;48.112;11.662;2023-03-15T01:49:05;0.40;;;0.38;;
31378;SDS011;61664;48.112;11.662;2023-03-15T01:51:40;0.50;;;0.50;;
31378;SDS011;61664;48.112;11.662;2023-03-15T01:54:18;0.52;;;0.52;;
31378;SDS011;61664;48.112;11.662;2023-03-15T01:56:57;0.32;;;0.32;;
31378;SDS011;61664;48.112;11.662;2023-03-15T01:59:49;0.73;;;0.50;;
31378;SDS011;61664;48.112;11.662;2023-03-15T02:02:27;0.40;;;0.40;;
31378;SDS011;61664;48.112;11.662;2023-03-15T02:04:56;0.55;;;0.43;;
31378;SDS011;61664;48.112;11.662;2023-03-15T02:07:35;0.40;;;0.40;;
31378;SDS011;61664;48.112;11.662;2023-03-15T02:10:19;1.15;;;0.40;;
31378;SDS011;61664;48.112;11.662;2023-03-15T02:12:55;0.50;;;0.50;;
31378;SDS011;61664;48.112;11.662;2023-03-15T02:15:24;0.32;;;0.32;;
31378;SDS011;61664;48.112;11.662;2023-03-15T02:17:52;1.48;;;0.82;;
31378;SDS011;61664;48.112;11.662;2023-03-15T02:23:38;0.60;;;0.60;;
31378;SDS011;61664;48.112;11.662;2023-03-15T02:28:53;0.70;;;0.70;;
31378;SDS011;61664;48.112;11.662;2023-03-15T02:31:21;1.42;;;0.90;;
31378;SDS011;61664;48.112;11.662;2023-03-15T02:33:49;0.90;;;0.90;;
31378;SDS011;61664;48.112;11.662;2023-03-15T02:36:19;0.85;;;0.85;;
31378;SDS011;61664;48.112;11.662;2023-03-15T02:38:52;1.00;;;1.00;;
31378;SDS011;61664;48.112;11.662;2023-03-15T02:41:23;1.25;;;1.15;;
31378;SDS011;61664;48.112;11.662;2023-03-15T02:43:58;2.25;;;1.25;;
31378;SDS011;61664;48.112;11.662;2023-03-15T02:46:36;1.23;;;1.13;;
31378;SDS011;61664;48.112;11.662;2023-03-15T02:49:03;1.17;;;1.08;;
31378;SDS011;61664;48.112;11.662;2023-03-15T02:51:33;1.65;;;1.55;;
31378;SDS011;61664;48.112;11.662;2023-03-15T02:54:00;1.67;;;1.58;;
31378;SDS011;61664;48.112;11.662;2023-03-15T02:56:29;1.58;;;1.48;;
31378;SDS011;61664;48.112;11.662;2023-03-15T02:58:58;1.67;;;1.58;;
31378;SDS011;61664;48.112;11.662;2023-03-15T03:01:25;4.80;;;1.92;;
31378;SDS011;61664;48.112;11.662;2023-03-15T03:03:52;1.50;;;1.40;;
31378;SDS011;61664;48.112;11.662;2023-03-15T03:06:19;1.58;;;1.48;;
31378;SDS011;61664;48.112;11.662;2023-03-15T03:08:46;1.55;;;1.45;;
31378;SDS011;61664;48.112;11.662;2023-03-15T03:11:14;1.00;;;1.00;;
31378;SDS011;61664;48.112;11.662;2023-03-15T03:13:41;1.08;;;0.93;;
31378;SDS011;61664;48.112;11.662;2023-03-15T03:16:09;2.80;;;1.30;;
31378;SDS011;61664;48.112;11.662;2023-03-15T03:18:36;3.17;;;1.20;;
31378;SDS011;61664;48.112;11.662;2023-03-15T03:21:05;1.85;;;1.60;;
31378;SDS011;61664;48.112;11.662;2023-03-15T03:23:34;4.45;;;1.52;;
31378;SDS011;61664;48.112;11.662;2023-03-15T03:26:02;1.27;;;1.17;;
31378;SDS011;61664;48.112;11.662;2023-03-15T03:28:42;2.30;;;1.10;;
31378;SDS011;61664;48.112;11.662;2023-03-15T03:31:16;1.55;;;1.25;;
31378;SDS011;61664;48.112;11.662;2023-03-15T03:33:47;1.38;;;1.27;;
31378;SDS011;61664;48.112;11.662;2023-03-15T03:36:14;1.67;;;1.58;;
31378;SDS011;61664;48.112;11.662;2023-03-15T03:38:42;1.80;;;1.20;;
31378;SDS011;61664;48.112;11.662;2023-03-15T03:41:11;1.13;;;1.02;;
31378;SDS011;61664;48.112;11.662;2023-03-15T03:43:40;2.30;;;1.50;;
31378;SDS011;61664;48.112;11.662;2023-03-15T03:46:07;2.05;;;1.10;;
31378;SDS011;61664;48.112;11.662;2023-03-15T03:48:35;4.07;;;1.27;;
31378;SDS011;61664;48.112;11.662;2023-03-15T03:51:01;2.20;;;1.30;;
31378;SDS011;61664;48.112;11.662;2023-03-15T03:53:29;1.70;;;1.10;;
31378;SDS011;61664;48.112;11.662;2023-03-15T03:55:56;1.60;;;1.38;;
31378;SDS011;61664;48.112;11.662;2023-03-15T03:58:23;1.95;;;1.27;;
31378;SDS011;61664;48.112;11.662;2023-03-15T04:00:50;1.30;;;1.20;;
31378;SDS011;61664;48.112;11.662;2023-03-15T04:03:23;1.50;;;1.35;;
31378;SDS011;61664;48.112;11.662;2023-03-15T04:05:53;1.58;;;1.48;;
31378;SDS011;61664;48.112;11.662;2023-03-15T04:08:22;2.78;;;1.67;;
31378;SDS011;61664;48.112;11.662;2023-03-15T04:10:52;2.35;;;2.00;;
31378;SDS011;61664;48.112;11.662;2023-03-15T04:13:21;3.60;;;1.80;;
31378;SDS011;61664;48.112;11.662;2023-03-15T04:15:50;1.73;;;1.60;;
31378;SDS011;61664;48.112;11.662;2023-03-15T04:18:23;1.90;;;1.40;;
31378;SDS011;61664;48.112;11.662;2023-03-15T04:20:50;2.47;;;1.65;;
31378;SDS011;61664;48.112;11.662;2023-03-15T04:23:20;1.40;;;1.25;;
31378;SDS011;61664;48.112;11.662;2023-03-15T04:25:49;1.58;;;1.30;;
31378;SDS011;61664;48.112;11.662;2023-03-15T04:28:18;1.38;;;1.27;;
31378;SDS011;61664;48.112;11.662;2023-03-15T04:30:46;1.40;;;1.30;;
31378;SDS011;61664;48.112;11.662;2023-03-15T04:33:14;1.25;;;1.15;;
31378;SDS011;61664;48.112;11.662;2023-03-15T04:35:42;1.40;;;1.30;;
31378;SDS011;61664;48.112;11.662;2023-03-15T04:38:09;1.70;;;1.60;;
31378;SDS011;61664;48.112;11.662;2023-03-15T04:40:36;2.63;;;1.48;;
31378;SDS011;61664;48.112;11.662;2023-03-15T04:43:03;2.35;;;1.83;;
31378;SDS011;61664;48.112;11.662;2023-03-15T04:45:31;1.42;;;1.33;;
31378;SDS011;61664;48.112;11.662;2023-03-15T04:47:58;2.20;;;1.65;;
31378;SDS011;61664;48.112;11.662;2023-03-15T04:50:28;2.50;;;2.25;;
31378;SDS011;61664;48.112;11.662;2023-03-15T04:52:58;2.72;;;1.90;;
31378;SDS011;61664;48.112;11.662;2023-03-15T04:57:54;1.30;;;1.17;;
31378;SDS011;61664;48.112;11.662;2023-03-15T05:00:21;1.83;;;1.73;;
31378;SDS011;61664;48.112;11.662;2023-03-15T05:02:48;2.53;;;2.30;;
31378;SDS011;61664;48.112;11.662;2023-03-15T05:05:20;2.55;;;1.77;;
31378;SDS011;61664;48.112;11.662;2023-03-15T05:07:49;3.53;;;2.42;;
31378;SDS011;61664;48.112;11.662;2023-03-15T05:10:16;2.55;;;2.35;;
31378;SDS011;61664;48.112;11.662;2023-03-15T05:12:43;2.35;;;2.15;;
31378;SDS011;61664;48.112;11.662;2023-03-15T05:15:10;2.85;;;2.00;;
31378;SDS011;61664;48.112;11.662;2023-03-15T05:17:37;2.70;;;2.38;;
31378;SDS011;61664;48.112;11.662;2023-03-15T05:20:04;3.88;;;2.08;;
31378;SDS011;61664;48.112;11.662;2023-03-15T05:22:38;2.33;;;2.13;;
31378;SDS011;61664;48.112;11.662;2023-03-15T05:25:06;3.08;;;2.42;;
31378;SDS011;61664;48.112;11.662;2023-03-15T05:27:35;2.17;;;1.88;;
31378;SDS011;61664;48.112;11.662;2023-03-15T05:30:03;2.45;;;2.10;;
31378;SDS011;61664;48.112;11.662;2023-03-15T05:32:32;2.78;;;2.20;;
31378;SDS011;61664;48.112;11.662;2023-03-15T05:35:00;2.83;;;1.92;;
31378;SDS011;61664;48.112;11.662;2023-03-15T05:37:28;2.55;;;2.35;;
31378;SDS011;61664;48.112;11.662;2023-03-15T05:39:58;2.53;;;2.33;;
31378;SDS011;61664;48.112;11.662;2023-03-15T05:42:26;4.00;;;1.73;;
31378;SDS011;61664;48.112;11.662;2023-03-15T05:44:54;7.97;;;2.17;;
31378;SDS011;61664;48.112;11.662;2023-03-15T05:47:22;4.75;;;2.30;;
31378;SDS011;61664;48.112;11.662;2023-03-15T05:49:50;5.63;;;2.85;;
31378;SDS011;61664;48.112;11.662;2023-03-15T05:52:17;4.57;;;2.13;;
31378;SDS011;61664;48.112;11.662;2023-03-15T05:54:44;2.90;;;2.53;;
31378;SDS011;61664;48.112;11.662;2023-03-15T05:57:11;2.95;;;2.75;;
31378;SDS011;61664;48.112;11.662;2023-03-15T05:59:38;3.22;;;2.30;;
31378;SDS011;61664;48.112;11.662;2023-03-15T06:02:05;3.55;;;3.05;;
31378;SDS011;61664;48.112;11.662;2023-03-15T06:04:32;3.28;;;2.85;;
31378;SDS011;61664;48.112;11.662;2023-03-15T06:06:59;5.22;;;2.85;;
31378;SDS011;61664;48.112;11.662;2023-03-15T06:09:26;4.30;;;2.55;;
31378;SDS011;61664;48.112;11.662;2023-03-15T06:11:53;5.30;;;3.13;;
31378;SDS011;61664;48.112;11.662;2023-03-15T06:14:21;7.07;;;3.03;;
31378;SDS011;61664;48.112;11.662;2023-03-15T06:16:48;4.22;;;3.00;;
31378;SDS011;61664;48.112;11.662;2023-03-15T06:19:15;3.45;;;3.17;;
31378;SDS011;61664;48.112;11.662;2023-03-15T06:21:41;9.65;;;3.00;;
31378;SDS011;61664;48.112;11.662;2023-03-15T06:24:09;4.45;;;2.83;;
31378;SDS011;61664;48.112;11.662;2023-03-15T06:26:36;4.97;;;2.95;;
31378;SDS011;61664;48.112;11.662;2023-03-15T06:29:03;5.85;;;3.75;;
31378;SDS011;61664;48.112;11.662;2023-03-15T06:31:31;5.00;;;2.63;;
31378;SDS011;61664;48.112;11.662;2023-03-15T06:33:58;3.40;;;2.72;;
31378;SDS011;61664;48.112;11.662;2023-03-15T06:36:25;4.97;;;3.78;;
31378;SDS011;61664;48.112;11.662;2023-03-15T06:38:52;3.22;;;2.90;;
31378;SDS011;61664;48.112;11.662;2023-03-15T06:41:19;6.43;;;3.13;;
31378;SDS011;61664;48.112;11.662;2023-03-15T06:43:46;5.27;;;3.43;;
31378;SDS011;61664;48.112;11.662;2023-03-15T06:46:13;7.78;;;3.92;;
31378;SDS011;61664;48.112;11.662;2023-03-15T06:48:41;4.72;;;3.55;;
31378;SDS011;61664;48.112;11.662;2023-03-15T06:51:08;5.68;;;3.58;;
31378;SDS011;61664;48.112;11.662;2023-03-15T06:53:35;6.05;;;3.88;;
31378;SDS011;61664;48.112;11.662;2023-03-15T06:56:05;5.33;;;3.23;;
31378;SDS011;61664;48.112;11.662;2023-03-15T06:58:32;6.50;;;4.20;;
31378;SDS011;61664;48.112;11.662;2023-03-15T07:00:59;5.95;;;4.70;;
31378;SDS011;61664;48.112;11.662;2023-03-15T07:03:26;7.60;;;4.38;;
31378;SDS011;61664;48.112;11.662;2023-03-15T07:05:52;9.95;;;4.75;;
31378;SDS011;61664;48.112;11.662;2023-03-15T07:08:20;9.35;;;5.03;;
31378;SDS011;61664;48.112;11.662;2023-03-15T07:10:50;11.77;;;5.68;;
31378;SDS011;61664;48.112;11.662;2023-03-15T07:13:17;8.93;;;5.68;;
31378;SDS011;61664;48.112;11.662;2023-03-15T07:15:44;6.82;;;4.85;;
31378;SDS011;61664;48.112;11.662;2023-03-15T07:18:16;9.90;;;5.22;;
31378;SDS011;61664;48.112;11.662;2023-03-15T07:20:42;6.07;;;5.03;;
31378;SDS011;61664;48.112;11.662;2023-03-15T07:23:09;8.20;;;6.18;;
31378;SDS011;61664;48.112;11.662;2023-03-15T07:25:36;10.15;;;6.10;;
31378;SDS011;61664;48.112;11.662;2023-03-15T07:28:20;12.23;;;6.75;;
31378;SDS011;61664;48.112;11.662;2023-03-15T07:30:56;10.27;;;6.72;;
31378;SDS011;61664;48.112;11.662;2023-03-15T07:33:27;11.00;;;7.00;;
31378;SDS011;61664;48.112;11.662;2023-03-15T07:35:57;11.38;;;6.80;;
31378;SDS011;61664;48.112;11.662;2023-03-15T07:38:25;11.93;;;6.68;;
31378;SDS011;61664;48.112;11.662;2023-03-15T07:40:54;12.52;;;6.95;;
31378;SDS011;61664;48.112;11.662;2023-03-15T07:43:22;13.18;;;8.05;;
31378;SDS011;61664;48.112;11.662;2023-03-15T07:45:49;14.85;;;8.77;;
31378;SDS011;61664;48.112;11.662;2023-03-15T07:48:16;14.52;;;8.05;;
31378;SDS011;61664;48.112;11.662;2023-03-15T07:50:44;14.80;;;8.60;;
31378;SDS011;61664;48.112;11.662;2023-03-15T07:53:11;15.20;;;8.80;;
31378;SDS011;61664;48.112;11.662;2023-03-15T07:55:38;14.70;;;8.43;;
31378;SDS011;61664;48.112;11.662;2023-03-15T07:58:05;15.65;;;9.90;;
31378;SDS011;61664;48.112;11.662;2023-03-15T08:00:32;16.95;;;8.63;;
31378;SDS011;61664;48.112;11.662;2023-03-15T08:02:59;22.98;;;10.73;;
31378;SDS011;61664;48.112;11.662;2023-03-15T08:05:26;25.48;;;10.75;;
31378;SDS011;61664;48.112;11.662;2023-03-15T08:07:54;15.73;;;9.35;;
31378;SDS011;61664;48.112;11.662;2023-03-15T08:10:21;15.90;;;9.88;;
31378;SDS011;61664;48.112;11.662;2023-03-15T08:12:49;15.90;;;10.00;;
31378;SDS011;61664;48.112;11.662;2023-03-15T08:15:16;15.05;;;9.35;;
31378;SDS011;61664;48.112;11.662;2023-03-15T08:17:45;12.30;;;8.77;;
31378;SDS011;61664;48.112;11.662;2023-03-15T08:20:14;11.93;;;8.68;;
31378;SDS011;61664;48.112;11.662;2023-03-15T08:22:46;16.45;;;9.05;;
31378;SDS011;61664;48.112;11.662;2023-03-15T08:25:15;11.77;;;8.80;;
31378;SDS011;61664;48.112;11.662;2023-03-15T08:27:46;8.73;;;6.90;;
31378;SDS011;61664;48.112;11.662;2023-03-15T08:30:14;10.27;;;7.10;;
31378;SDS011;61664;48.112;11.662;2023-03-15T08:32:43;11.38;;;7.18;;
31378;SDS011;61664;48.112;11.662;2023-03-15T08:35:12;9.18;;;5.97;;
31378;SDS011;61664;48.112;11.662;2023-03-15T08:37:41;6.65;;;5.93;;
31378;SDS011;61664;48.112;11.662;2023-03-15T08:40:14;6.38;;;5.75;;
31378;SDS011;61664;48.112;11.662;2023-03-15T08:42:44;6.53;;;5.68;;
31378;SDS011;61664;48.112;11.662;2023-03-15T08:45:11;7.85;;;5.80;;
31378;SDS011;61664;48.112;11.662;2023-03-15T08:47:38;7.45;;;5.38;;
31378;SDS011;61664;48.112;11.662;2023-03-15T08:50:06;9.35;;;5.78;;
31378;SDS011;61664;48.112;11.662;2023-03-15T08:52:39;8.48;;;6.03;;
31378;SDS011;61664;48.112;11.662;2023-03-15T08:55:07;8.50;;;5.40;;
31378;SDS011;61664;48.112;11.662;2023-03-15T08:57:35;5.93;;;5.38;;
31378;SDS011;61664;48.112;11.662;2023-03-15T09:00:03;6.57;;;4.68;;
31378;SDS011;61664;48.112;11.662;2023-03-15T09:02:37;4.75;;;4.22;;
31378;SDS011;61664;48.112;11.662;2023-03-15T09:05:04;5.05;;;4.65;;
31378;SDS011;61664;48.112;11.662;2023-03-15T09:07:32;4.93;;;4.20;;
31378;SDS011;61664;48.112;11.662;2023-03-15T09:09:59;5.13;;;4.55;;
31378;SDS011;61664;48.112;11.662;2023-03-15T09:12:30;4.60;;;4.20;;
31378;SDS011;61664;48.112;11.662;2023-03-15T09:14:57;3.90;;;3.50;;
31378;SDS011;61664;48.112;11.662;2023-03-15T09:17:24;3.45;;;3.15;;
31378;SDS011;61664;48.112;11.662;2023-03-15T09:19:51;6.97;;;3.50;;
31378;SDS011;61664;48.112;11.662;2023-03-15T09:22:18;6.78;;;4.35;;
31378;SDS011;61664;48.112;11.662;2023-03-15T09:25:03;7.50;;;4.65;;
31378;SDS011;61664;48.112;11.662;2023-03-15T09:27:30;7.20;;;5.00;;
31378;SDS011;61664;48.112;11.662;2023-03-15T09:29:57;7.15;;;5.05;;
31378;SDS011;61664;48.112;11.662;2023-03-15T09:32:25;13.27;;;5.07;;
31378;SDS011;61664;48.112;11.662;2023-03-15T09:34:52;5.82;;;4.93;;
31378;SDS011;61664;48.112;11.662;2023-03-15T09:37:19;7.60;;;4.35;;
31378;SDS011;61664;48.112;11.662;2023-03-15T09:39:47;5.28;;;4.30;;
31378;SDS011;61664;48.112;11.662;2023-03-15T09:42:58;3.60;;;3.30;;
31378;SDS011;61664;48.112;11.662;2023-03-15T09:45:06;5.90;;;3.73;;
31378;SDS011;61664;48.112;11.662;2023-03-15T09:50:23;5.85;;;3.35;;
31378;SDS011;61664;48.112;11.662;2023-03-15T09:55:25;5.68;;;3.42;;
31378;SDS011;61664;48.112;11.662;2023-03-15T10:00:37;5.25;;;3.17;;
31378;SDS011;61664;48.112;11.662;2023-03-15T10:03:20;5.63;;;3.05;;
31378;SDS011;61664;48.112;11.662;2023-03-15T10:05:59;5.63;;;2.90;;
31378;SDS011;61664;48.112;11.662;2023-03-15T10:08:36;3.13;;;2.78;;
31378;SDS011;61664;48.112;11.662;2023-03-15T10:14:05;3.85;;;2.55;;
31378;SDS011;61664;48.112;11.662;2023-03-15T10:16:43;2.58;;;2.35;;
31378;SDS011;61664;48.112;11.662;2023-03-15T10:25:14;2.50;;;2.30;;
31378;SDS011;61664;48.112;11.662;2023-03-15T10:27:58;3.58;;;2.63;;
31378;SDS011;61664;48.112;11.662;2023-03-15T10:33:54;3.92;;;2.38;;
31378;SDS011;61664;48.112;11.662;2023-03-15T10:36:23;4.43;;;3.13;;
31378;SDS011;61664;48.112;11.662;2023-03-15T10:38:50;5.60;;;2.83;;
31378;SDS011;61664;48.112;11.662;2023-03-15T10:41:28;5.15;;;3.63;;
31378;SDS011;61664;48.112;11.662;2023-03-15T10:44:10;3.92;;;2.72;;
31378;SDS011;61664;48.112;11.662;2023-03-15T10:47:01;10.98;;;2.90;;
31378;SDS011;61664;48.112;11.662;2023-03-15T10:49:48;2.55;;;2.17;;
31378;SDS011;61664;48.112;11.662;2023-03-15T10:52:25;2.78;;;1.60;;
31378;SDS011;61664;48.112;11.662;2023-03-15T10:54:52;4.05;;;2.20;;
31378;SDS011;61664;48.112;11.662;2023-03-15T10:57:32;4.05;;;2.20;;
31378;SDS011;61664;48.112;11.662;2023-03-15T11:00:06;4.18;;;2.13;;
31378;SDS011;61664;48.112;11.662;2023-03-15T11:03:15;2.22;;;1.48;;
31378;SDS011;61664;48.112;11.662;2023-03-15T11:05:50;1.63;;;1.48;;
31378;SDS011;61664;48.112;11.662;2023-03-15T11:08:20;1.67;;;1.38;;
31378;SDS011;61664;48.112;11.662;2023-03-15T11:11:07;2.83;;;1.50;;
31378;SDS011;61664;48.112;11.662;2023-03-15T11:13:36;2.40;;;1.70;;
31378;SDS011;61664;48.112;11.662;2023-03-15T11:16:18;4.68;;;2.05;;
31378;SDS011;61664;48.112;11.662;2023-03-15T11:21:28;2.20;;;1.58;;
31378;SDS011;61664;48.112;11.662;2023-03-15T11:23:59;1.42;;;1.30;;
31378;SDS011;61664;48.112;11.662;2023-03-15T11:31:41;1.98;;;1.13;;
31378;SDS011;61664;48.112;11.662;2023-03-15T11:34:12;1.52;;;0.90;;
31378;SDS011;61664;48.112;11.662;2023-03-15T11:36:53;1.90;;;1.00;;
31378;SDS011;61664;48.112;11.662;2023-03-15T11:39:37;1.08;;;0.80;;
31378;SDS011;61664;48.112;11.662;2023-03-15T11:42:28;1.25;;;1.10;;
31378;SDS011;61664;48.112;11.662;2023-03-15T11:45:05;1.73;;;0.90;;
31378;SDS011;61664;48.112;11.662;2023-03-15T11:47:51;1.88;;;1.20;;
31378;SDS011;61664;48.112;11.662;2023-03-15T11:50:23;2.00;;;1.23;;
31378;SDS011;61664;48.112;11.662;2023-03-15T11:52:50;1.50;;;0.90;;
31378;SDS011;61664;48.112;11.662;2023-03-15T11:55:23;1.23;;;0.88;;
31378;SDS011;61664;48.112;11.662;2023-03-15T11:57:53;2.50;;;1.05;;
31378;SDS011;61664;48.112;11.662;2023-03-15T12:00:25;1.13;;;0.70;;
31378;SDS011;61664;48.112;11.662;2023-03-15T12:03:38;1.42;;;0.80;;
31378;SDS011;61664;48.112;11.662;2023-03-15T12:06:05;1.25;;;0.93;;
31378;SDS011;61664;48.112;11.662;2023-03-15T12:08:43;0.77;;;0.77;;
31378;SDS011;61664;48.112;11.662;2023-03-15T12:11:11;0.70;;;0.70;;
31378;SDS011;61664;48.112;11.662;2023-03-15T12:16:30;0.55;;;0.52;;
31378;SDS011;61664;48.112;11.662;2023-03-15T12:19:13;2.15;;;0.60;;
31378;SDS011;61664;48.112;11.662;2023-03-15T12:21:54;1.85;;;0.65;;
31378;SDS011;61664;48.112;11.662;2023-03-15T12:26:58;3.40;;;0.88;;
31378;SDS011;61664;48.112;11.662;2023-03-15T12:29:46;0.88;;;0.75;;
31378;SDS011;61664;48.112;11.662;2023-03-15T12:32:24;0.65;;;0.65;;
31378;SDS011;61664;48.112;11.662;2023-03-15T12:34:55;0.93;;;0.70;;
31378;SDS011;61664;48.112;11.662;2023-03-15T12:55:57;0.52;;;0.50;;
31378;SDS011;61664;48.112;11.662;2023-03-15T12:58:57;1.38;;;0.80;;
31378;SDS011;61664;48.112;11.662;2023-03-15T13:01:30;0.95;;;0.40;;
31378;SDS011;61664;48.112;11.662;2023-03-15T13:03:58;0.95;;;0.60;;
31378;SDS011;61664;48.112;11.662;2023-03-15T13:13:01;6.00;;;0.77;;
31378;SDS011;61664;48.112;11.662;2023-03-15T13:18:11;0.50;;;0.50;;
31378;SDS011;61664;48.112;11.662;2023-03-15T13:23:28;0.82;;;0.77;;
31378;SDS011;61664;48.112;11.662;2023-03-15T13:26:00;0.98;;;0.68;;
31378;SDS011;61664;48.112;11.662;2023-03-15T13:28:50;2.33;;;0.60;;
31378;SDS011;61664;48.112;11.662;2023-03-15T13:34:03;0.30;;;0.30;;
31378;SDS011;61664;48.112;11.662;2023-03-15T13:36:44;0.70;;;0.70;;
31378;SDS011;61664;48.112;11.662;2023-03-15T13:39:28;2.78;;;0.68;;
31378;SDS011;61664;48.112;11.662;2023-03-15T13:42:18;0.63;;;0.50;;
31378;SDS011;61664;48.112;11.662;2023-03-15T13:47:34;0.75;;;0.60;;
31378;SDS011;61664;48.112;11.662;2023-03-15T13:50:04;0.60;;;0.60;;
31378;SDS011;61664;48.112;11.662;2023-03-15T13:52:32;1.05;;;0.57;;
31378;SDS011;61664;48.112;11.662;2023-03-15T13:55:00;1.60;;;0.40;;
31378;SDS011;61664;48.112;11.662;2023-03-15T13:57:28;0.57;;;0.50;;
31378;SDS011;61664;48.112;11.662;2023-03-15T13:59:56;1.90;;;0.57;;
31378;SDS011;61664;48.112;11.662;2023-03-15T14:05:12;0.45;;;0.40;;
31378;SDS011;61664;48.112;11.662;2023-03-15T14:07:44;0.98;;;0.57;;
31378;SDS011;61664;48.112;11.662;2023-03-15T14:12:53;0.65;;;0.50;;
31378;SDS011;61664;48.112;11.662;2023-03-15T14:15:26;2.13;;;0.60;;
31378;SDS011;61664;48.112;11.662;2023-03-15T14:20:35;0.80;;;0.50;;
31378;SDS011;61664;48.112;11.662;2023-03-15T14:23:09;0.40;;;0.40;;
31378;SDS011;61664;48.112;11.662;2023-03-15T14:25:43;0.95;;;0.70;;
31378;SDS011;61664;48.112;11.662;2023-03-15T14:28:21;2.80;;;0.90;;
31378;SDS011;61664;48.112;11.662;2023-03-15T14:30:50;1.50;;;1.17;;
31378;SDS011;61664;48.112;11.662;2023-03-15T14:33:28;0.75;;;0.75;;
31378;SDS011;61664;48.112;11.662;2023-03-15T14:36:19;1.27;;;0.52;;
31378;SDS011;61664;48.112;11.662;2023-03-15T14:38:51;0.43;;;0.40;;
31378;SDS011;61664;48.112;11.662;2023-03-15T14:41:28;0.73;;;0.60;;
31378;SDS011;61664;48.112;11.662;2023-03-15T14:44:02;1.17;;;0.70;;
31378;SDS011;61664;48.112;11.662;2023-03-15T14:46:30;0.77;;;0.60;;
31378;SDS011;61664;48.112;11.662;2023-03-15T14:48:57;1.70;;;0.70;;
31378;SDS011;61664;48.112;11.662;2023-03-15T14:51:24;0.85;;;0.65;;
31378;SDS011;61664;48.112;11.662;2023-03-15T14:53:54;1.33;;;1.13;;
31378;SDS011;61664;48.112;11.662;2023-03-15T14:56:23;2.83;;;1.55;;
31378;SDS011;61664;48.112;11.662;2023-03-15T14:58:51;1.30;;;1.20;;
31378;SDS011;61664;48.112;11.662;2023-03-15T15:01:20;1.15;;;1.05;;
31378;SDS011;61664;48.112;11.662;2023-03-15T15:03:52;1.60;;;1.50;;
31378;SDS011;61664;48.112;11.662;2023-03-15T15:06:24;3.78;;;1.50;;
31378;SDS011;61664;48.112;11.662;2023-03-15T15:08:54;3.20;;;1.25;;
31378;SDS011;61664;48.112;11.662;2023-03-15T15:11:24;3.97;;;3.67;;
31378;SDS011;61664;48.112;11.662;2023-03-15T15:13:52;1.77;;;1.58;;
31378;SDS011;61664;48.112;11.662;2023-03-15T15:16:20;1.77;;;1.33;;
31378;SDS011;61664;48.112;11.662;2023-03-15T15:18:47;1.38;;;0.73;;
31378;SDS011;61664;48.112;11.662;2023-03-15T15:21:18;0.90;;;0.70;;
31378;SDS011;61664;48.112;11.662;2023-03-15T15:23:52;1.42;;;0.65;;
31378;SDS011;61664;48.112;11.662;2023-03-15T15:26:25;1.33;;;0.88;;
31378;SDS011;61664;48.112;11.662;2023-03-15T15:28:55;1.73;;;0.70;;
31378;SDS011;61664;48.112;11.662;2023-03-15T15:31:24;1.90;;;0.82;;
31378;SDS011;61664;48.112;11.662;2023-03-15T15:33:53;0.70;;;0.63;;
31378;SDS011;61664;48.112;11.662;2023-03-15T15:36:26;1.08;;;0.90;;
31378;SDS011;61664;48.112;11.662;2023-03-15T15:38:58;1.52;;;0.60;;
31378;SDS011;61664;48.112;11.662;2023-03-15T15:41:32;0.85;;;0.80;;
31378;SDS011;61664;48.112;11.662;2023-03-15T15:43:59;5.20;;;1.08;;
31378;SDS011;61664;48.112;11.662;2023-03-15T15:46:26;0.65;;;0.65;;
31378;SDS011;61664;48.112;11.662;2023-03-15T15:48:54;0.80;;;0.50;;
31378;SDS011;61664;48.112;11.662;2023-03-15T15:51:27;2.38;;;1.13;;
31378;SDS011;61664;48.112;11.662;2023-03-15T15:54:03;1.20;;;0.80;;
31378;SDS011;61664;48.112;11.662;2023-03-15T15:56:35;1.25;;;0.60;;
31378;SDS011;61664;48.112;11.662;2023-03-15T15:59:11;1.73;;;0.90;;
31378;SDS011;61664;48.112;11.662;2023-03-15T16:04:24;1.67;;;0.70;;
31378;SDS011;61664;48.112;11.662;2023-03-15T16:06:55;0.90;;;0.82;;
31378;SDS011;61664;48.112;11.662;2023-03-15T16:09:27;2.88;;;1.30;;
31378;SDS011;61664;48.112;11.662;2023-03-15T16:11:56;1.38;;;0.77;;
31378;SDS011;61664;48.112;11.662;2023-03-15T16:14:23;1.83;;;0.90;;
31378;SDS011;61664;48.112;11.662;2023-03-15T16:16:50;1.10;;;0.90;;
31378;SDS011;61664;48.112;11.662;2023-03-15T16:19:17;1.30;;;1.20;;
31378;SDS011;61664;48.112;11.662;2023-03-15T16:21:44;3.95;;;1.85;;
31378;SDS011;61664;48.112;11.662;2023-03-15T16:24:18;1.90;;;1.40;;
31378;SDS011;61664;48.112;11.662;2023-03-15T16:26:52;0.93;;;0.80;;